sensor_id;sensor_type;location;lat;lon;timestamp;pressure;altitude;pressure_sealevel;temperature;humidity
55317;BME280;41178;48.956;8.130;2023-05-03T00:04:40;100573.19;;;13.15;43.75
55317;BME280;41178;48.956;8.130;2023-05-03T00:09:42;100556.59;;;10.90;46.20
55317;BME280;41178;48.956;8.130;2023-05-03T00:14:44;100631.81;;;11.86;45.92
55317;BME280;41178;48.956;8.130;2023-05-03T00:19:46;100629.53;;;11.50;46.41
55317;BME280;41178;48.956;8.130;2023-05-03T00:24:48;100608.63;;;11.12;46.92
55317;BME280;41178;48.956;8.130;2023-05-03T00:29:51;100617.50;;;11.37;45.80
55317;BME280;41178;48.956;8.130;2023-05-03T00:34:56;100577.44;;;10.62;47.63
55317;BME280;41178;48.956;8.130;2023-05-03T00:39:58;100625.00;;;11.50;46.09
55317;BME280;41178;48.956;8.130;2023-05-03T00:44:59;100581.16;;;12.62;44.81
55317;BME280;41178;48.956;8.130;2023-05-03T00:50:01;100595.06;;;12.34;44.57
55317;BME280;41178;48.956;8.130;2023-05-03T00:55:04;100592.38;;;10.97;46.56
55317;BME280;41178;48.956;8.130;2023-05-03T01:00:07;100571.97;;;12.79;44.33
55317;BME280;41178;48.956;8.130;2023-05-03T01:05:11;100580.91;;;12.95;43.59
55317;BME280;41178;48.956;8.130;2023-05-03T01:10:54;100609.03;;;12.61;43.94
55317;BME280;41178;48.956;8.130;2023-05-03T01:16:03;100568.94;;;11.24;44.06
55317;BME280;41178;48.956;8.130;2023-05-03T01:21:09;100632.69;;;11.45;45.53
55317;BME280;41178;48.956;8.130;2023-05-03T01:31:39;100597.19;;;10.69;46.54
55317;BME280;41178;48.956;8.130;2023-05-03T01:36:43;100626.88;;;11.09;45.68
55317;BME280;41178;48.956;8.130;2023-05-03T01:41:49;100511.41;;;9.52;48.71
55317;BME280;41178;48.956;8.130;2023-05-03T01:46:51;100595.34;;;10.10;47.08
55317;BME280;41178;48.956;8.130;2023-05-03T01:51:52;100625.47;;;10.72;46.30
55317;BME280;41178;48.956;8.130;2023-05-03T01:56:54;100595.03;;;10.13;46.98
55317;BME280;41178;48.956;8.130;2023-05-03T02:01:56;100633.25;;;11.24;45.44
55317;BME280;41178;48.956;8.130;2023-05-03T02:06:57;100602.66;;;10.43;45.56
55317;BME280;41178;48.956;8.130;2023-05-03T02:11:59;100552.34;;;9.61;46.91
55317;BME280;41178;48.956;8.130;2023-05-03T02:17:01;100513.56;;;9.22;48.04
55317;BME280;41178;48.956;8.130;2023-05-03T02:22:03;100612.53;;;10.00;47.40
55317;BME280;41178;48.956;8.130;2023-05-03T02:27:05;100524.72;;;8.56;49.39
55317;BME280;41178;48.956;8.130;2023-05-03T02:32:07;100624.38;;;9.97;47.94
55317;BME280;41178;48.956;8.130;2023-05-03T02:37:09;100625.19;;;9.37;48.16
55317;BME280;41178;48.956;8.130;2023-05-03T02:42:10;100631.00;;;9.14;48.69
55317;BME280;41178;48.956;8.130;2023-05-03T02:47:12;100630.47;;;9.55;48.28
55317;BME280;41178;48.956;8.130;2023-05-03T02:52:13;100618.88;;;8.66;49.25
55317;BME280;41178;48.956;8.130;2023-05-03T02:57:15;100566.63;;;8.00;49.99
55317;BME280;41178;48.956;8.130;2023-05-03T03:02:17;100609.00;;;8.48;49.29
55317;BME280;41178;48.956;8.130;2023-05-03T03:07:18;100618.78;;;8.58;49.14
55317;BME280;41178;48.956;8.130;2023-05-03T03:12:20;100577.78;;;7.85;50.97
55317;BME280;41178;48.956;8.130;2023-05-03T03:17:21;100605.13;;;8.79;49.49
55317;BME280;41178;48.956;8.130;2023-05-03T03:22:23;100612.25;;;8.88;49.42
55317;BME280;41178;48.956;8.130;2023-05-03T03:27:28;100606.47;;;8.29;49.79
55317;BME280;41178;48.956;8.130;2023-05-03T03:32:29;100604.81;;;8.18;49.61
55317;BME280;41178;48.956;8.130;2023-05-03T03:37:31;100643.00;;;9.54;47.12
55317;BME280;41178;48.956;8.130;2023-05-03T03:42:33;100638.66;;;10.06;46.69
55317;BME280;41178;48.956;8.130;2023-05-03T03:47:34;100656.72;;;10.12;46.43
55317;BME280;41178;48.956;8.130;2023-05-03T03:52:36;100683.66;;;9.84;46.89
55317;BME280;41178;48.956;8.130;2023-05-03T03:57:38;100666.53;;;10.46;45.32
55317;BME280;41178;48.956;8.130;2023-05-03T04:02:39;100709.56;;;9.48;46.66
55317;BME280;41178;48.956;8.130;2023-05-03T04:07:41;100649.97;;;11.01;44.65
55317;BME280;41178;48.956;8.130;2023-05-03T04:12:43;100671.91;;;10.97;44.49
55317;BME280;41178;48.956;8.130;2023-05-03T04:17:44;100680.78;;;11.14;44.40
55317;BME280;41178;48.956;8.130;2023-05-03T04:22:46;100697.38;;;11.75;43.55
55317;BME280;41178;48.956;8.130;2023-05-03T04:27:48;100686.50;;;11.68;43.42
55317;BME280;41178;48.956;8.130;2023-05-03T04:32:50;100710.78;;;10.66;44.40
55317;BME280;41178;48.956;8.130;2023-05-03T04:37:54;100716.84;;;9.82;45.76
55317;BME280;41178;48.956;8.130;2023-05-03T04:42:56;100703.78;;;10.74;45.17
55317;BME280;41178;48.956;8.130;2023-05-03T04:47:58;100721.03;;;10.37;45.81
55317;BME280;41178;48.956;8.130;2023-05-03T04:52:59;100744.44;;;9.64;46.63
55317;BME280;41178;48.956;8.130;2023-05-03T04:58:01;100712.91;;;8.96;48.14
55317;BME280;41178;48.956;8.130;2023-05-03T05:03:03;100722.47;;;8.98;47.92
55317;BME280;41178;48.956;8.130;2023-05-03T05:08:06;100705.34;;;10.42;45.55
55317;BME280;41178;48.956;8.130;2023-05-03T05:13:08;100711.94;;;8.97;47.60
55317;BME280;41178;48.956;8.130;2023-05-03T05:18:10;100719.66;;;12.40;43.00
55317;BME280;41178;48.956;8.130;2023-05-03T05:23:11;100737.41;;;10.33;45.70
55317;BME280;41178;48.956;8.130;2023-05-03T05:28:13;100726.84;;;9.80;46.17
55317;BME280;41178;48.956;8.130;2023-05-03T05:33:14;100746.31;;;9.72;46.99
55317;BME280;41178;48.956;8.130;2023-05-03T05:38:19;100725.59;;;10.52;46.49
55317;BME280;41178;48.956;8.130;2023-05-03T05:43:20;100704.66;;;10.82;46.00
55317;BME280;41178;48.956;8.130;2023-05-03T05:48:22;100755.88;;;10.19;47.14
55317;BME280;41178;48.956;8.130;2023-05-03T05:53:24;100723.47;;;10.64;46.29
55317;BME280;41178;48.956;8.130;2023-05-03T05:58:25;100723.31;;;10.23;46.80
55317;BME280;41178;48.956;8.130;2023-05-03T06:03:27;100736.63;;;10.41;47.56
55317;BME280;41178;48.956;8.130;2023-05-03T06:08:29;100737.13;;;10.45;46.95
55317;BME280;41178;48.956;8.130;2023-05-03T06:13:30;100726.50;;;10.69;46.13
55317;BME280;41178;48.956;8.130;2023-05-03T06:18:34;100729.53;;;10.32;47.39
55317;BME280;41178;48.956;8.130;2023-05-03T06:23:36;100698.88;;;11.44;46.67
55317;BME280;41178;48.956;8.130;2023-05-03T06:28:39;100736.28;;;10.10;48.94
55317;BME280;41178;48.956;8.130;2023-05-03T06:33:41;100722.31;;;12.56;45.28
55317;BME280;41178;48.956;8.130;2023-05-03T06:38:43;100706.34;;;10.83;47.40
55317;BME280;41178;48.956;8.130;2023-05-03T06:43:44;100684.97;;;11.24;46.96
55317;BME280;41178;48.956;8.130;2023-05-03T06:48:46;100719.38;;;12.74;45.43
55317;BME280;41178;48.956;8.130;2023-05-03T06:53:47;100701.34;;;10.97;47.09
55317;BME280;41178;48.956;8.130;2023-05-03T06:58:49;100713.94;;;11.95;47.08
55317;BME280;41178;48.956;8.130;2023-05-03T07:03:51;100703.88;;;11.97;47.28
55317;BME280;41178;48.956;8.130;2023-05-03T07:08:53;100718.63;;;11.19;48.05
55317;BME280;41178;48.956;8.130;2023-05-03T07:13:55;100672.72;;;12.35;46.01
55317;BME280;41178;48.956;8.130;2023-05-03T07:18:56;100695.34;;;12.33;47.36
55317;BME280;41178;48.956;8.130;2023-05-03T07:23:58;100697.88;;;11.29;48.00
55317;BME280;41178;48.956;8.130;2023-05-03T07:29:00;100692.31;;;13.68;45.47
55317;BME280;41178;48.956;8.130;2023-05-03T07:34:01;100632.38;;;12.83;45.93
55317;BME280;41178;48.956;8.130;2023-05-03T07:39:03;100684.75;;;13.87;46.01
55317;BME280;41178;48.956;8.130;2023-05-03T07:44:05;100615.56;;;12.27;46.55
55317;BME280;41178;48.956;8.130;2023-05-03T07:49:07;100632.00;;;13.33;46.82
55317;BME280;41178;48.956;8.130;2023-05-03T07:54:08;100632.84;;;12.24;47.79
55317;BME280;41178;48.956;8.130;2023-05-03T07:59:11;100643.38;;;14.02;45.94
55317;BME280;41178;48.956;8.130;2023-05-03T08:04:12;100659.66;;;12.32;48.09
55317;BME280;41178;48.956;8.130;2023-05-03T08:09:14;100631.41;;;13.60;46.84
55317;BME280;41178;48.956;8.130;2023-05-03T08:14:16;100662.78;;;14.28;45.44
55317;BME280;41178;48.956;8.130;2023-05-03T08:19:18;100655.38;;;14.15;45.90
55317;BME280;41178;48.956;8.130;2023-05-03T08:24:20;100626.63;;;14.37;45.80
55317;BME280;41178;48.956;8.130;2023-05-03T08:29:22;100592.94;;;14.41;46.01
55317;BME280;41178;48.956;8.130;2023-05-03T08:34:25;100576.66;;;13.68;45.84
55317;BME280;41178;48.956;8.130;2023-05-03T08:39:26;100629.34;;;13.47;46.74
55317;BME280;41178;48.956;8.130;2023-05-03T08:44:28;100593.16;;;15.04;45.55
55317;BME280;41178;48.956;8.130;2023-05-03T08:49:31;100541.84;;;14.26;45.27
55317;BME280;41178;48.956;8.130;2023-05-03T08:54:34;100603.56;;;15.07;45.61
55317;BME280;41178;48.956;8.130;2023-05-03T08:59:49;100573.41;;;14.75;45.50
55317;BME280;41178;48.956;8.130;2023-05-03T09:04:52;100514.38;;;15.02;44.47
55317;BME280;41178;48.956;8.130;2023-05-03T09:09:53;100534.34;;;15.43;45.35
55317;BME280;41178;48.956;8.130;2023-05-03T09:14:55;100503.88;;;15.14;44.97
55317;BME280;41178;48.956;8.130;2023-05-03T09:19:58;100495.84;;;16.17;43.56
55317;BME280;41178;48.956;8.130;2023-05-03T09:25:00;100477.06;;;15.89;44.43
55317;BME280;41178;48.956;8.130;2023-05-03T09:30:16;100473.84;;;16.20;43.89
55317;BME280;41178;48.956;8.130;2023-05-03T09:35:18;100505.00;;;16.16;44.86
55317;BME280;41178;48.956;8.130;2023-05-03T09:40:21;100471.53;;;16.11;43.88
55317;BME280;41178;48.956;8.130;2023-05-03T09:45:23;100467.03;;;16.44;43.37
55317;BME280;41178;48.956;8.130;2023-05-03T09:50:24;100429.41;;;16.70;43.66
55317;BME280;41178;48.956;8.130;2023-05-03T09:55:27;100437.69;;;17.73;42.12
55317;BME280;41178;48.956;8.130;2023-05-03T10:00:30;100418.72;;;17.22;42.54
55317;BME280;41178;48.956;8.130;2023-05-03T10:05:39;100397.81;;;16.77;43.73
55317;BME280;41178;48.956;8.130;2023-05-03T10:10:44;100404.31;;;17.80;42.63
55317;BME280;41178;48.956;8.130;2023-05-03T10:15:59;100400.16;;;16.40;43.95
55317;BME280;41178;48.956;8.130;2023-05-03T10:21:08;100372.66;;;18.12;42.16
55317;BME280;41178;48.956;8.130;2023-05-03T10:26:12;100349.53;;;16.94;43.33
55317;BME280;41178;48.956;8.130;2023-05-03T10:31:46;100389.41;;;17.18;43.44
55317;BME280;41178;48.956;8.130;2023-05-03T10:36:51;100333.81;;;17.29;43.27
55317;BME280;41178;48.956;8.130;2023-05-03T10:41:57;100372.78;;;17.67;42.85
55317;BME280;41178;48.956;8.130;2023-05-03T10:47:12;100340.22;;;17.80;42.89
55317;BME280;41178;48.956;8.130;2023-05-03T10:57:44;100302.25;;;17.55;42.71
55317;BME280;41178;48.956;8.130;2023-05-03T11:06:31;100447.78;;;14.68;47.60
55317;BME280;41178;48.956;8.130;2023-05-03T11:11:35;100377.00;;;15.84;45.70
55317;BME280;41178;48.956;8.130;2023-05-03T11:16:38;100403.44;;;16.15;45.75
55317;BME280;41178;48.956;8.130;2023-05-03T11:21:48;100400.91;;;17.52;43.59
55317;BME280;41178;48.956;8.130;2023-05-03T11:26:50;100356.88;;;16.67;44.92
55317;BME280;41178;48.956;8.130;2023-05-03T11:31:51;100360.78;;;16.84;45.00
55317;BME280;41178;48.956;8.130;2023-05-03T11:36:53;100350.47;;;16.41;45.12
55317;BME280;41178;48.956;8.130;2023-05-03T11:42:02;100329.25;;;16.24;45.25
55317;BME280;41178;48.956;8.130;2023-05-03T11:47:05;100354.38;;;17.76;43.41
55317;BME280;41178;48.956;8.130;2023-05-03T11:52:07;100305.63;;;16.27;44.16
55317;BME280;41178;48.956;8.130;2023-05-03T11:57:12;100300.28;;;16.78;43.88
55317;BME280;41178;48.956;8.130;2023-05-03T12:02:15;100314.19;;;17.41;43.58
55317;BME280;41178;48.956;8.130;2023-05-03T12:07:17;100298.31;;;17.51;42.33
55317;BME280;41178;48.956;8.130;2023-05-03T12:12:23;100254.69;;;17.02;42.08
55317;BME280;41178;48.956;8.130;2023-05-03T12:17:37;100267.13;;;17.80;43.06
55317;BME280;41178;48.956;8.130;2023-05-03T12:22:47;100286.16;;;18.61;42.17
55317;BME280;41178;48.956;8.130;2023-05-03T12:27:52;100230.53;;;17.71;42.50
55317;BME280;41178;48.956;8.130;2023-05-03T12:33:14;100253.94;;;18.53;40.23
55317;BME280;41178;48.956;8.130;2023-05-03T12:38:17;100193.09;;;17.43;41.21
55317;BME280;41178;48.956;8.130;2023-05-03T12:43:24;100229.56;;;18.53;40.21
55317;BME280;41178;48.956;8.130;2023-05-03T12:48:28;100236.97;;;18.94;40.33
55317;BME280;41178;48.956;8.130;2023-05-03T12:53:33;100202.00;;;17.75;41.03
55317;BME280;41178;48.956;8.130;2023-05-03T12:58:39;100182.97;;;17.63;40.76
55317;BME280;41178;48.956;8.130;2023-05-03T13:03:49;100225.78;;;18.35;39.93
55317;BME280;41178;48.956;8.130;2023-05-03T13:09:10;100194.97;;;17.67;39.52
55317;BME280;41178;48.956;8.130;2023-05-03T13:14:20;100179.69;;;17.54;40.82
55317;BME280;41178;48.956;8.130;2023-05-03T13:19:22;100201.34;;;17.98;40.93
55317;BME280;41178;48.956;8.130;2023-05-03T13:24:24;100147.19;;;18.84;39.67
55317;BME280;41178;48.956;8.130;2023-05-03T13:29:26;100201.66;;;18.27;39.31
55317;BME280;41178;48.956;8.130;2023-05-03T13:34:28;100174.91;;;18.86;39.07
55317;BME280;41178;48.956;8.130;2023-05-03T13:39:30;100149.50;;;18.69;38.88
55317;BME280;41178;48.956;8.130;2023-05-03T13:44:32;100152.78;;;18.40;39.76
55317;BME280;41178;48.956;8.130;2023-05-03T13:49:34;100155.63;;;18.27;39.47
55317;BME280;41178;48.956;8.130;2023-05-03T13:54:36;100143.78;;;18.89;38.34
55317;BME280;41178;48.956;8.130;2023-05-03T13:59:38;100151.88;;;19.07;38.05
55317;BME280;41178;48.956;8.130;2023-05-03T14:04:39;100074.97;;;18.90;37.65
55317;BME280;41178;48.956;8.130;2023-05-03T14:09:41;100110.53;;;19.35;36.97
55317;BME280;41178;48.956;8.130;2023-05-03T14:14:44;100107.25;;;18.49;38.30
55317;BME280;41178;48.956;8.130;2023-05-03T14:19:46;100035.63;;;19.23;37.85
55317;BME280;41178;48.956;8.130;2023-05-03T14:24:48;100064.78;;;17.94;37.83
55317;BME280;41178;48.956;8.130;2023-05-03T14:29:50;100041.72;;;19.42;36.42
55317;BME280;41178;48.956;8.130;2023-05-03T14:34:52;100066.03;;;18.59;36.63
55317;BME280;41178;48.956;8.130;2023-05-03T14:39:54;99999.50;;;19.98;35.63
55317;BME280;41178;48.956;8.130;2023-05-03T14:44:57;100051.94;;;18.38;36.74
55317;BME280;41178;48.956;8.130;2023-05-03T14:49:59;100056.66;;;18.85;36.35
55317;BME280;41178;48.956;8.130;2023-05-03T14:55:01;100046.16;;;20.98;34.70
55317;BME280;41178;48.956;8.130;2023-05-03T15:00:04;100047.81;;;18.78;34.56
55317;BME280;41178;48.956;8.130;2023-05-03T15:05:14;100070.88;;;19.46;34.69
55317;BME280;41178;48.956;8.130;2023-05-03T15:10:16;100016.84;;;19.68;34.72
55317;BME280;41178;48.956;8.130;2023-05-03T15:15:17;100030.38;;;20.21;35.03
55317;BME280;41178;48.956;8.130;2023-05-03T15:20:19;100024.25;;;20.42;35.60
55317;BME280;41178;48.956;8.130;2023-05-03T15:25:22;100019.53;;;20.09;34.97
55317;BME280;41178;48.956;8.130;2023-05-03T15:30:24;100008.41;;;19.82;34.17
55317;BME280;41178;48.956;8.130;2023-05-03T15:35:26;100016.00;;;19.68;34.61
55317;BME280;41178;48.956;8.130;2023-05-03T15:40:28;99962.88;;;20.01;34.34
55317;BME280;41178;48.956;8.130;2023-05-03T15:45:30;100019.09;;;19.36;34.83
55317;BME280;41178;48.956;8.130;2023-05-03T15:50:35;99989.97;;;20.24;33.87
55317;BME280;41178;48.956;8.130;2023-05-03T15:55:37;99977.59;;;20.79;32.89
55317;BME280;41178;48.956;8.130;2023-05-03T16:00:39;99993.97;;;18.81;35.03
55317;BME280;41178;48.956;8.130;2023-05-03T16:05:41;100012.84;;;20.00;33.77
55317;BME280;41178;48.956;8.130;2023-05-03T16:10:42;100016.47;;;19.76;33.50
55317;BME280;41178;48.956;8.130;2023-05-03T16:15:44;99985.50;;;19.89;33.92
55317;BME280;41178;48.956;8.130;2023-05-03T16:20:47;99996.56;;;19.47;33.85
55317;BME280;41178;48.956;8.130;2023-05-03T16:25:50;99988.81;;;20.20;33.04
55317;BME280;41178;48.956;8.130;2023-05-03T16:30:51;99935.06;;;20.39;33.33
55317;BME280;41178;48.956;8.130;2023-05-03T16:35:53;99964.59;;;18.67;34.15
55317;BME280;41178;48.956;8.130;2023-05-03T16:40:58;99986.34;;;19.78;33.66
55317;BME280;41178;48.956;8.130;2023-05-03T16:46:01;99951.06;;;19.78;34.06
55317;BME280;41178;48.956;8.130;2023-05-03T16:51:03;99973.22;;;18.75;35.13
55317;BME280;41178;48.956;8.130;2023-05-03T16:56:05;99942.31;;;20.34;34.46
55317;BME280;41178;48.956;8.130;2023-05-03T17:01:07;99941.16;;;20.29;34.54
55317;BME280;41178;48.956;8.130;2023-05-03T17:06:10;99898.97;;;20.10;34.70
55317;BME280;41178;48.956;8.130;2023-05-03T17:11:13;99899.56;;;20.63;34.17
55317;BME280;41178;48.956;8.130;2023-05-03T17:16:16;99872.97;;;20.48;33.94
55317;BME280;41178;48.956;8.130;2023-05-03T17:21:18;99879.72;;;20.62;34.13
55317;BME280;41178;48.956;8.130;2023-05-03T17:26:21;99936.84;;;19.47;35.38
55317;BME280;41178;48.956;8.130;2023-05-03T17:31:25;99896.97;;;20.73;34.42
55317;BME280;41178;48.956;8.130;2023-05-03T17:36:27;99954.72;;;19.72;35.23
55317;BME280;41178;48.956;8.130;2023-05-03T17:41:29;99926.44;;;19.97;34.91
55317;BME280;41178;48.956;8.130;2023-05-03T17:46:31;99950.53;;;18.34;36.08
55317;BME280;41178;48.956;8.130;2023-05-03T17:51:35;99954.72;;;19.08;35.37
55317;BME280;41178;48.956;8.130;2023-05-03T17:56:37;99988.22;;;19.25;35.41
55317;BME280;41178;48.956;8.130;2023-05-03T18:01:39;99969.56;;;19.29;35.72
55317;BME280;41178;48.956;8.130;2023-05-03T18:06:44;99992.69;;;18.96;36.24
55317;BME280;41178;48.956;8.130;2023-05-03T18:11:47;99964.38;;;18.92;35.72
55317;BME280;41178;48.956;8.130;2023-05-03T18:16:49;99919.34;;;17.15;36.82
55317;BME280;41178;48.956;8.130;2023-05-03T18:21:54;99956.44;;;18.43;35.67
55317;BME280;41178;48.956;8.130;2023-05-03T18:26:55;99965.56;;;17.69;36.23
55317;BME280;41178;48.956;8.130;2023-05-03T18:32:00;100004.78;;;18.70;35.57
55317;BME280;41178;48.956;8.130;2023-05-03T18:37:03;99990.75;;;18.61;35.52
55317;BME280;41178;48.956;8.130;2023-05-03T18:42:05;99974.53;;;18.00;35.88
55317;BME280;41178;48.956;8.130;2023-05-03T18:47:08;100029.59;;;18.24;36.19
55317;BME280;41178;48.956;8.130;2023-05-03T18:52:11;99972.47;;;17.28;36.77
55317;BME280;41178;48.956;8.130;2023-05-03T18:57:13;100022.75;;;17.73;36.48
55317;BME280;41178;48.956;8.130;2023-05-03T19:02:14;100011.69;;;17.75;36.15
55317;BME280;41178;48.956;8.130;2023-05-03T19:07:17;99997.41;;;19.12;35.58
55317;BME280;41178;48.956;8.130;2023-05-03T19:12:19;100046.66;;;17.95;36.63
55317;BME280;41178;48.956;8.130;2023-05-03T19:17:20;100044.75;;;18.14;36.30
55317;BME280;41178;48.956;8.130;2023-05-03T19:22:23;100034.59;;;18.58;35.97
55317;BME280;41178;48.956;8.130;2023-05-03T19:27:25;100060.34;;;18.00;36.56
55317;BME280;41178;48.956;8.130;2023-05-03T19:32:26;99970.06;;;16.44;37.22
55317;BME280;41178;48.956;8.130;2023-05-03T19:37:28;100056.72;;;18.55;35.81
55317;BME280;41178;48.956;8.130;2023-05-03T19:42:31;100066.69;;;18.42;36.03
55317;BME280;41178;48.956;8.130;2023-05-03T19:47:33;100038.72;;;18.72;35.13
55317;BME280;41178;48.956;8.130;2023-05-03T19:52:35;100094.09;;;18.16;35.96
55317;BME280;41178;48.956;8.130;2023-05-03T19:57:38;100042.47;;;19.01;35.00
55317;BME280;41178;48.956;8.130;2023-05-03T20:02:40;100078.41;;;18.55;35.03
55317;BME280;41178;48.956;8.130;2023-05-03T20:07:42;100076.13;;;18.52;35.04
55317;BME280;41178;48.956;8.130;2023-05-03T20:12:44;100073.75;;;17.51;35.88
55317;BME280;41178;48.956;8.130;2023-05-03T20:17:46;100066.69;;;17.75;35.48
55317;BME280;41178;48.956;8.130;2023-05-03T20:22:49;100082.69;;;17.77;36.11
55317;BME280;41178;48.956;8.130;2023-05-03T20:27:52;100088.47;;;17.80;35.84
55317;BME280;41178;48.956;8.130;2023-05-03T20:32:54;100059.00;;;17.03;36.32
55317;BME280;41178;48.956;8.130;2023-05-03T20:37:56;100067.91;;;17.54;36.41
55317;BME280;41178;48.956;8.130;2023-05-03T20:42:58;100076.13;;;16.65;37.57
55317;BME280;41178;48.956;8.130;2023-05-03T20:48:02;100116.88;;;17.21;36.89
55317;BME280;41178;48.956;8.130;2023-05-03T20:53:04;100092.84;;;17.12;36.75
55317;BME280;41178;48.956;8.130;2023-05-03T20:58:05;100081.22;;;17.55;36.19
55317;BME280;41178;48.956;8.130;2023-05-03T21:03:07;100099.47;;;16.85;37.08
55317;BME280;41178;48.956;8.130;2023-05-03T21:08:09;100086.38;;;15.98;38.11
55317;BME280;41178;48.956;8.130;2023-05-03T21:13:11;100021.97;;;14.56;39.43
55317;BME280;41178;48.956;8.130;2023-05-03T21:18:13;100142.91;;;15.39;39.44
55317;BME280;41178;48.956;8.130;2023-05-03T21:23:15;100059.81;;;14.28;40.08
55317;BME280;41178;48.956;8.130;2023-05-03T21:28:16;100107.63;;;14.94;39.49
55317;BME280;41178;48.956;8.130;2023-05-03T21:33:18;100092.03;;;16.41;37.86
55317;BME280;41178;48.956;8.130;2023-05-03T21:38:20;100133.06;;;16.05;38.31
55317;BME280;41178;48.956;8.130;2023-05-03T21:43:22;100110.94;;;14.96;40.19
55317;BME280;41178;48.956;8.130;2023-05-03T21:48:23;100118.75;;;14.71;40.48
55317;BME280;41178;48.956;8.130;2023-05-03T21:53:25;100110.97;;;15.56;38.80
55317;BME280;41178;48.956;8.130;2023-05-03T21:58:27;100100.78;;;15.11;39.68
55317;BME280;41178;48.956;8.130;2023-05-03T22:03:29;100112.13;;;14.73;40.25
55317;BME280;41178;48.956;8.130;2023-05-03T22:08:31;100000.16;;;13.34;41.52
55317;BME280;41178;48.956;8.130;2023-05-03T22:13:33;100106.06;;;14.51;40.62
55317;BME280;41178;48.956;8.130;2023-05-03T22:18:50;100090.03;;;14.23;40.89
55317;BME280;41178;48.956;8.130;2023-05-03T22:23:53;100114.13;;;14.45;40.44
55317;BME280;41178;48.956;8.130;2023-05-03T22:28:54;100082.69;;;15.85;39.15
55317;BME280;41178;48.956;8.130;2023-05-03T22:33:56;100050.94;;;16.33;38.38
55317;BME280;41178;48.956;8.130;2023-05-03T22:38:58;100122.25;;;14.58;40.95
55317;BME280;41178;48.956;8.130;2023-05-03T22:44:05;100039.56;;;13.48;41.63
55317;BME280;41178;48.956;8.130;2023-05-03T22:49:07;100109.31;;;14.33;40.63
55317;BME280;41178;48.956;8.130;2023-05-03T22:54:09;100069.47;;;14.15;40.21
55317;BME280;41178;48.956;8.130;2023-05-03T22:59:11;100087.50;;;15.37;39.70
55317;BME280;41178;48.956;8.130;2023-05-03T23:04:14;100045.72;;;13.42;41.95
55317;BME280;41178;48.956;8.130;2023-05-03T23:09:15;100112.47;;;14.50;40.65
55317;BME280;41178;48.956;8.130;2023-05-03T23:14:18;100087.06;;;13.76;41.82
55317;BME280;41178;48.956;8.130;2023-05-03T23:19:19;100043.09;;;13.56;41.80
55317;BME280;41178;48.956;8.130;2023-05-03T23:24:21;100091.34;;;13.99;41.57
55317;BME280;41178;48.956;8.130;2023-05-03T23:29:23;100106.50;;;14.07;41.43
55317;BME280;41178;48.956;8.130;2023-05-03T23:34:25;100094.91;;;12.93;43.16
55317;BME280;41178;48.956;8.130;2023-05-03T23:39:29;100123.13;;;13.82;41.74
55317;BME280;41178;48.956;8.130;2023-05-03T23:44:31;100076.47;;;12.90;42.85
55317;BME280;41178;48.956;8.130;2023-05-03T23:49:53;100102.84;;;14.21;41.77
55317;BME280;41178;48.956;8.130;2023-05-03T23:54:54;100123.91;;;13.76;42.00
55317;BME280;41178;48.956;8.130;2023-05-03T23:59:56;100128.09;;;14.20;41.68
